メインページ
METAR-TAF:

METAR-TAF

空港 :

チュニス・カルタゴ国際空港

チュニス, チュニジア

緯度: 36-50N, 経度: 010-14E, 海抜: 3m

現時点の気象観測

当レポートは35分前の07:00(UTC)に作成
の風 4kt
気温 12°C
湿度 82%
気圧 1024 hPa
視程10km以上
高度2600ftの雲はほとんどない

METAR: DTTA 240700Z 18004KT 9999 FEW026 12/09 Q1024

時間: 08:35 (07:35 UTC)

予報

当レポートは2時間35分前の05:00(UTC)に作成
予報は24日の 06時(UTC)から 25日の 06時(UTC)まで有効
南西の風 4kt
視程10km以上
高度2600ftの雲はほとんどない

TAF: DTTA 240500Z 2406/2506 22004KT 9999 FEW026

4,000以上の空港の気象観測と天気予報(METAR報とTAF報)

利用可能な観測所は地図上に黄色い丸と赤い丸で示す。

丸の上にカーソルを重ねると観測所名を参照できる。

次にクリックすると気象観測と天気予報を参照できる。

マップの切り替え:黒色「×」印の緑ボタンをクリックして拡大、「-」印の緑ボタンをクリックして縮小、緑色の三角印をクリックして隣りの地図に切り替え


METAR-TAF: